sensor_id;sensor_type;location;lat;lon;timestamp;pressure;altitude;pressure_sealevel;temperature;humidity
77749;BME280;66938;52.084;5.228;2023-03-01T00:01:10;103382.0;;;-0.89;79.66
77749;BME280;66938;52.084;5.228;2023-03-01T00:02:49;103376.0;;;-0.8;79.48
77749;BME280;66938;52.084;5.228;2023-03-01T00:04:26;103377.0;;;-0.84;79.97
77749;BME280;66938;52.084;5.228;2023-03-01T00:06:04;103383.99999999999;;;-0.79;79.92
77749;BME280;66938;52.084;5.228;2023-03-01T00:09:17;103378.0;;;-0.82;80.36
77749;BME280;66938;52.084;5.228;2023-03-01T00:11:03;103379.0;;;-0.87;80.91
77749;BME280;66938;52.084;5.228;2023-03-01T00:12:39;103369.0;;;-0.9;80.05
77749;BME280;66938;52.084;5.228;2023-03-01T00:15:52;103378.0;;;-0.86;79.69
77749;BME280;66938;52.084;5.228;2023-03-01T00:17:28;103379.0;;;-0.84;79.13
77749;BME280;66938;52.084;5.228;2023-03-01T00:19:04;103382.0;;;-0.87;79.17
77749;BME280;66938;52.084;5.228;2023-03-01T00:20:41;103376.0;;;-0.84;79.3
77749;BME280;66938;52.084;5.228;2023-03-01T00:23:54;103374.0;;;-0.92;80.67
77749;BME280;66938;52.084;5.228;2023-03-01T00:25:31;103372.0;;;-0.96;80.52
77749;BME280;66938;52.084;5.228;2023-03-01T00:27:07;103368.0;;;-0.94;79.84
77749;BME280;66938;52.084;5.228;2023-03-01T00:30:20;103368.0;;;-0.92;79.44
77749;BME280;66938;52.084;5.228;2023-03-01T00:31:56;103364.00000000001;;;-0.95;79.22
77749;BME280;66938;52.084;5.228;2023-03-01T00:33:33;103367.0;;;-0.97;79.52
77749;BME280;66938;52.084;5.228;2023-03-01T00:36:46;103369.0;;;-0.93;79.16
77749;BME280;66938;52.084;5.228;2023-03-01T00:38:22;103368.0;;;-0.99;79.41
77749;BME280;66938;52.084;5.228;2023-03-01T00:39:58;103366.00000000001;;;-0.98;80.31
77749;BME280;66938;52.084;5.228;2023-03-01T00:43:10;103363.00000000001;;;-0.98;80.38
77749;BME280;66938;52.084;5.228;2023-03-01T00:44:46;103361.99999999999;;;-1.04;80.23
77749;BME280;66938;52.084;5.228;2023-03-01T00:46:25;103365.00000000001;;;-1.03;80.24
77749;BME280;66938;52.084;5.228;2023-03-01T00:48:02;103359.99999999999;;;-1.0;80.14
77749;BME280;66938;52.084;5.228;2023-03-01T00:51:16;103367.0;;;-0.98;80.22
77749;BME280;66938;52.084;5.228;2023-03-01T00:52:54;103366.00000000001;;;-1.03;80.24
77749;BME280;66938;52.084;5.228;2023-03-01T00:54:30;103363.00000000001;;;-1.0;80.27
77749;BME280;66938;52.084;5.228;2023-03-01T00:57:45;103365.00000000001;;;-1.06;80.69
77749;BME280;66938;52.084;5.228;2023-03-01T00:59:22;103363.00000000001;;;-1.06;80.41
77749;BME280;66938;52.084;5.228;2023-03-01T01:00:58;103361.99999999999;;;-1.06;80.03
77749;BME280;66938;52.084;5.228;2023-03-01T01:02:34;103364.00000000001;;;-1.05;79.89
77749;BME280;66938;52.084;5.228;2023-03-01T01:05:49;103358.99999999999;;;-1.07;80.16
77749;BME280;66938;52.084;5.228;2023-03-01T01:07:25;103358.99999999999;;;-1.12;80.33
77749;BME280;66938;52.084;5.228;2023-03-01T01:09:03;103353.0;;;-1.09;80.17
77749;BME280;66938;52.084;5.228;2023-03-01T01:12:20;103354.0;;;-1.05;79.75
77749;BME280;66938;52.084;5.228;2023-03-01T01:13:57;103353.0;;;-1.13;80.33
77749;BME280;66938;52.084;5.228;2023-03-01T01:15:33;103352.0;;;-1.14;80.48
77749;BME280;66938;52.084;5.228;2023-03-01T01:17:10;103347.0;;;-1.11;80.23
77749;BME280;66938;52.084;5.228;2023-03-01T01:20:22;103347.0;;;-1.12;80.37
77749;BME280;66938;52.084;5.228;2023-03-01T01:21:58;103344.0;;;-1.11;80.41
77749;BME280;66938;52.084;5.228;2023-03-01T01:23:35;103343.0;;;-1.13;81.0
77749;BME280;66938;52.084;5.228;2023-03-01T01:26:48;103338.00000000001;;;-1.13;81.05
77749;BME280;66938;52.084;5.228;2023-03-01T01:28:25;103333.0;;;-1.1;80.75
77749;BME280;66938;52.084;5.228;2023-03-01T01:30:02;103329.0;;;-1.07;80.36
77749;BME280;66938;52.084;5.228;2023-03-01T01:33:17;103329.0;;;-1.09;80.27
77749;BME280;66938;52.084;5.228;2023-03-01T01:34:54;103328.0;;;-1.07;80.33
77749;BME280;66938;52.084;5.228;2023-03-01T01:36:32;103322.0;;;-1.12;80.5
77749;BME280;66938;52.084;5.228;2023-03-01T01:38:09;103319.0;;;-1.14;80.75
77749;BME280;66938;52.084;5.228;2023-03-01T01:41:22;103318.0;;;-1.15;81.3
77749;BME280;66938;52.084;5.228;2023-03-01T01:42:59;103316.00000000001;;;-1.2;81.0
77749;BME280;66938;52.084;5.228;2023-03-01T01:44:35;103316.00000000001;;;-1.2;80.84
77749;BME280;66938;52.084;5.228;2023-03-01T01:47:59;103321.0;;;-1.15;80.81
77749;BME280;66938;52.084;5.228;2023-03-01T01:49:42;103321.0;;;-1.1;80.66
77749;BME280;66938;52.084;5.228;2023-03-01T01:51:24;103316.00000000001;;;-1.18;80.81
77749;BME280;66938;52.084;5.228;2023-03-01T01:53:01;103315.00000000001;;;-1.23;80.83
77749;BME280;66938;52.084;5.228;2023-03-01T01:56:23;103311.99999999999;;;-1.27;80.8
77749;BME280;66938;52.084;5.228;2023-03-01T01:58:05;103308.99999999999;;;-1.26;80.91
77749;BME280;66938;52.084;5.228;2023-03-01T01:59:49;103304.0;;;-1.26;81.11
77749;BME280;66938;52.084;5.228;2023-03-01T02:01:26;103306.0;;;-1.23;80.89
77749;BME280;66938;52.084;5.228;2023-03-01T02:04:44;103304.0;;;-1.29;80.78
77749;BME280;66938;52.084;5.228;2023-03-01T02:06:27;103302.0;;;-1.26;80.62
77749;BME280;66938;52.084;5.228;2023-03-01T02:08:06;103300.0;;;-1.28;80.91
77749;BME280;66938;52.084;5.228;2023-03-01T02:09:46;103295.0;;;-1.27;80.98
77749;BME280;66938;52.084;5.228;2023-03-01T02:13:03;103300.0;;;-1.29;80.91
77749;BME280;66938;52.084;5.228;2023-03-01T02:14:40;103297.0;;;-1.32;81.22
77749;BME280;66938;52.084;5.228;2023-03-01T02:16:17;103301.0;;;-1.36;81.31
77749;BME280;66938;52.084;5.228;2023-03-01T02:17:54;103300.0;;;-1.36;81.03
77749;BME280;66938;52.084;5.228;2023-03-01T02:21:42;103302.0;;;-1.4;81.47
77749;BME280;66938;52.084;5.228;2023-03-01T02:23:25;103304.0;;;-1.39;81.69
77749;BME280;66938;52.084;5.228;2023-03-01T02:25:07;103300.0;;;-1.3;81.55
77749;BME280;66938;52.084;5.228;2023-03-01T02:26:52;103300.0;;;-1.36;81.08
77749;BME280;66938;52.084;5.228;2023-03-01T02:28:32;103298.0;;;-1.35;80.75
77749;BME280;66938;52.084;5.228;2023-03-01T02:31:47;103298.0;;;-1.35;80.66
77749;BME280;66938;52.084;5.228;2023-03-01T02:33:24;103295.0;;;-1.43;80.61
77749;BME280;66938;52.084;5.228;2023-03-01T02:35:02;103295.0;;;-1.46;80.7
77749;BME280;66938;52.084;5.228;2023-03-01T02:38:18;103297.0;;;-1.44;80.45
77749;BME280;66938;52.084;5.228;2023-03-01T02:39:59;103292.0;;;-1.38;80.48
77749;BME280;66938;52.084;5.228;2023-03-01T02:41:39;103286.99999999999;;;-1.47;80.69
77749;BME280;66938;52.084;5.228;2023-03-01T02:43:19;103284.99999999999;;;-1.47;80.77
77749;BME280;66938;52.084;5.228;2023-03-01T02:46:42;103288.00000000001;;;-1.47;80.53
77749;BME280;66938;52.084;5.228;2023-03-01T02:48:19;103283.0;;;-1.47;80.39
77749;BME280;66938;52.084;5.228;2023-03-01T02:49:55;103280.0;;;-1.47;80.47
77749;BME280;66938;52.084;5.228;2023-03-01T02:51:41;103278.0;;;-1.46;80.64
77749;BME280;66938;52.084;5.228;2023-03-01T02:53:28;103276.0;;;-1.5;80.86
77749;BME280;66938;52.084;5.228;2023-03-01T02:56:50;103273.0;;;-1.55;80.86
77749;BME280;66938;52.084;5.228;2023-03-01T02:58:27;103270.0;;;-1.48;81.03
77749;BME280;66938;52.084;5.228;2023-03-01T03:00:07;103267.0;;;-1.5;81.58
77749;BME280;66938;52.084;5.228;2023-03-01T03:03:21;103265.00000000001;;;-1.52;80.91
77749;BME280;66938;52.084;5.228;2023-03-01T03:04:57;103267.0;;;-1.56;80.88
77749;BME280;66938;52.084;5.228;2023-03-01T03:06:34;103270.0;;;-1.57;81.06
77749;BME280;66938;52.084;5.228;2023-03-01T03:08:10;103266.00000000001;;;-1.54;80.91
77749;BME280;66938;52.084;5.228;2023-03-01T03:11:22;103261.99999999999;;;-1.59;80.83
77749;BME280;66938;52.084;5.228;2023-03-01T03:13:00;103266.00000000001;;;-1.57;80.45
77749;BME280;66938;52.084;5.228;2023-03-01T03:14:37;103267.0;;;-1.56;80.56
77749;BME280;66938;52.084;5.228;2023-03-01T03:17:51;103264.00000000001;;;-1.56;80.47
77749;BME280;66938;52.084;5.228;2023-03-01T03:19:28;103269.0;;;-1.61;80.81
77749;BME280;66938;52.084;5.228;2023-03-01T03:21:07;103267.0;;;-1.6;80.97
77749;BME280;66938;52.084;5.228;2023-03-01T03:22:43;103266.00000000001;;;-1.66;81.09
77749;BME280;66938;52.084;5.228;2023-03-01T03:25:55;103257.0;;;-1.66;80.95
77749;BME280;66938;52.084;5.228;2023-03-01T03:27:32;103256.0;;;-1.65;80.72
77749;BME280;66938;52.084;5.228;2023-03-01T03:29:08;103252.0;;;-1.6;80.44
77749;BME280;66938;52.084;5.228;2023-03-01T03:32:20;103248.0;;;-1.63;80.53
77749;BME280;66938;52.084;5.228;2023-03-01T03:33:56;103243.0;;;-1.61;80.08
77749;BME280;66938;52.084;5.228;2023-03-01T03:38:52;103251.0;;;-1.67;80.36
77749;BME280;66938;52.084;5.228;2023-03-01T03:40:30;103248.0;;;-1.71;80.69
77749;BME280;66938;52.084;5.228;2023-03-01T03:42:08;103249.0;;;-1.75;80.97
77749;BME280;66938;52.084;5.228;2023-03-01T03:43:44;103244.0;;;-1.75;80.83
77749;BME280;66938;52.084;5.228;2023-03-01T03:46:56;103247.0;;;-1.73;81.3
77749;BME280;66938;52.084;5.228;2023-03-01T03:48:33;103242.0;;;-1.71;81.55
77749;BME280;66938;52.084;5.228;2023-03-01T03:50:11;103246.0;;;-1.67;81.2
77749;BME280;66938;52.084;5.228;2023-03-01T03:53:26;103243.0;;;-1.68;80.86
77749;BME280;66938;52.084;5.228;2023-03-01T03:55:04;103239.00000000001;;;-1.74;80.95
77749;BME280;66938;52.084;5.228;2023-03-01T03:56:40;103241.00000000001;;;-1.72;81.8
77749;BME280;66938;52.084;5.228;2023-03-01T03:58:18;103239.00000000001;;;-1.73;82.05
77749;BME280;66938;52.084;5.228;2023-03-01T04:01:31;103236.99999999999;;;-1.68;82.06
77749;BME280;66938;52.084;5.228;2023-03-01T04:03:07;103233.99999999999;;;-1.63;81.56
77749;BME280;66938;52.084;5.228;2023-03-01T04:04:45;103236.99999999999;;;-1.63;81.33
77749;BME280;66938;52.084;5.228;2023-03-01T04:07:58;103236.99999999999;;;-1.69;81.42
77749;BME280;66938;52.084;5.228;2023-03-01T04:09:35;103241.00000000001;;;-1.69;81.12
77749;BME280;66938;52.084;5.228;2023-03-01T04:11:12;103243.0;;;-1.7;80.94
77749;BME280;66938;52.084;5.228;2023-03-01T04:14:25;103242.0;;;-1.71;80.72
77749;BME280;66938;52.084;5.228;2023-03-01T04:16:01;103242.0;;;-1.78;80.72
77749;BME280;66938;52.084;5.228;2023-03-01T04:17:37;103243.0;;;-1.79;80.69
77749;BME280;66938;52.084;5.228;2023-03-01T04:19:13;103240.00000000001;;;-1.73;80.5
77749;BME280;66938;52.084;5.228;2023-03-01T04:22:26;103244.0;;;-1.76;80.36
77749;BME280;66938;52.084;5.228;2023-03-01T04:24:03;103246.0;;;-1.71;80.16
77749;BME280;66938;52.084;5.228;2023-03-01T04:25:41;103245.0;;;-1.79;80.34
77749;BME280;66938;52.084;5.228;2023-03-01T04:28:54;103242.0;;;-1.77;80.55
77749;BME280;66938;52.084;5.228;2023-03-01T04:30:30;103242.0;;;-1.83;80.86
77749;BME280;66938;52.084;5.228;2023-03-01T04:32:06;103242.0;;;-1.91;81.41
77749;BME280;66938;52.084;5.228;2023-03-01T04:35:20;103243.0;;;-1.9;81.52
77749;BME280;66938;52.084;5.228;2023-03-01T04:36:56;103248.0;;;-1.99;81.13
77749;BME280;66938;52.084;5.228;2023-03-01T04:38:33;103245.0;;;-1.94;80.83
77749;BME280;66938;52.084;5.228;2023-03-01T04:40:10;103247.0;;;-1.99;81.64
77749;BME280;66938;52.084;5.228;2023-03-01T04:43:23;103244.0;;;-1.96;81.02
77749;BME280;66938;52.084;5.228;2023-03-01T04:44:59;103243.0;;;-1.99;80.83
77749;BME280;66938;52.084;5.228;2023-03-01T04:46:36;103239.00000000001;;;-1.91;80.8
77749;BME280;66938;52.084;5.228;2023-03-01T04:49:49;103239.00000000001;;;-2.02;81.11
77749;BME280;66938;52.084;5.228;2023-03-01T04:51:25;103238.00000000001;;;-2.02;81.83
77749;BME280;66938;52.084;5.228;2023-03-01T04:53:01;103229.0;;;-2.11;81.53
77749;BME280;66938;52.084;5.228;2023-03-01T04:56:15;103229.0;;;-2.09;81.45
77749;BME280;66938;52.084;5.228;2023-03-01T04:57:52;103229.0;;;-2.04;81.3
77749;BME280;66938;52.084;5.228;2023-03-01T04:59:29;103220.0;;;-2.02;80.99
77749;BME280;66938;52.084;5.228;2023-03-01T05:01:09;103222.0;;;-2.06;80.73
77749;BME280;66938;52.084;5.228;2023-03-01T05:04:24;103217.0;;;-2.13;81.5
77749;BME280;66938;52.084;5.228;2023-03-01T05:06:00;103216.00000000001;;;-2.19;81.22
77749;BME280;66938;52.084;5.228;2023-03-01T05:07:36;103219.0;;;-2.18;81.02
77749;BME280;66938;52.084;5.228;2023-03-01T05:10:50;103214.00000000001;;;-2.18;80.83
77749;BME280;66938;52.084;5.228;2023-03-01T05:12:28;103213.00000000001;;;-2.16;80.47
77749;BME280;66938;52.084;5.228;2023-03-01T05:14:05;103208.0;;;-2.2;80.41
77749;BME280;66938;52.084;5.228;2023-03-01T05:15:42;103205.0;;;-2.2;80.37
77749;BME280;66938;52.084;5.228;2023-03-01T05:18:54;103201.0;;;-2.23;80.36
77749;BME280;66938;52.084;5.228;2023-03-01T05:20:30;103198.0;;;-2.2;80.78
77749;BME280;66938;52.084;5.228;2023-03-01T05:22:07;103198.0;;;-2.22;80.66
77749;BME280;66938;52.084;5.228;2023-03-01T05:25:20;103195.0;;;-2.25;81.41
77749;BME280;66938;52.084;5.228;2023-03-01T05:26:57;103184.99999999999;;;-2.28;81.47
77749;BME280;66938;52.084;5.228;2023-03-01T05:28:34;103181.0;;;-2.29;81.03
77749;BME280;66938;52.084;5.228;2023-03-01T05:31:48;103183.0;;;-2.3;81.03
77749;BME280;66938;52.084;5.228;2023-03-01T05:33:26;103181.0;;;-2.34;80.84
77749;BME280;66938;52.084;5.228;2023-03-01T05:35:03;103176.0;;;-2.37;80.8
77749;BME280;66938;52.084;5.228;2023-03-01T05:36:40;103173.0;;;-2.37;80.7
77749;BME280;66938;52.084;5.228;2023-03-01T05:39:52;103176.0;;;-2.31;80.66
77749;BME280;66938;52.084;5.228;2023-03-01T05:41:28;103172.0;;;-2.27;80.87
77749;BME280;66938;52.084;5.228;2023-03-01T05:43:05;103165.00000000001;;;-2.24;80.74
77749;BME280;66938;52.084;5.228;2023-03-01T05:46:18;103159.99999999999;;;-2.29;80.91
77749;BME280;66938;52.084;5.228;2023-03-01T05:47:54;103157.0;;;-2.34;81.02
77749;BME280;66938;52.084;5.228;2023-03-01T05:49:31;103156.0;;;-2.33;81.06
77749;BME280;66938;52.084;5.228;2023-03-01T05:52:43;103155.0;;;-2.38;81.2
77749;BME280;66938;52.084;5.228;2023-03-01T05:54:21;103158.0;;;-2.44;81.17
77749;BME280;66938;52.084;5.228;2023-03-01T05:55:59;103157.0;;;-2.39;81.13
77749;BME280;66938;52.084;5.228;2023-03-01T05:57:35;103157.0;;;-2.47;82.38
77749;BME280;66938;52.084;5.228;2023-03-01T06:00:48;103154.0;;;-2.5;82.32
77749;BME280;66938;52.084;5.228;2023-03-01T06:02:24;103153.0;;;-2.45;81.91
77749;BME280;66938;52.084;5.228;2023-03-01T06:04:01;103152.0;;;-2.48;81.44
77749;BME280;66938;52.084;5.228;2023-03-01T06:07:15;103149.0;;;-2.48;81.3
77749;BME280;66938;52.084;5.228;2023-03-01T06:08:51;103156.0;;;-2.49;81.44
77749;BME280;66938;52.084;5.228;2023-03-01T06:10:28;103152.0;;;-2.5;81.52
77749;BME280;66938;52.084;5.228;2023-03-01T06:13:43;103159.99999999999;;;-2.53;81.78
77749;BME280;66938;52.084;5.228;2023-03-01T06:15:20;103158.0;;;-2.5;81.41
77749;BME280;66938;52.084;5.228;2023-03-01T06:16:57;103152.0;;;-2.45;80.91
77749;BME280;66938;52.084;5.228;2023-03-01T06:18:34;103154.0;;;-2.45;80.73
77749;BME280;66938;52.084;5.228;2023-03-01T06:21:50;103157.0;;;-2.52;82.05
77749;BME280;66938;52.084;5.228;2023-03-01T06:23:26;103153.0;;;-2.51;82.25
77749;BME280;66938;52.084;5.228;2023-03-01T06:25:04;103161.99999999999;;;-2.53;82.05
77749;BME280;66938;52.084;5.228;2023-03-01T06:28:17;103168.0;;;-2.48;81.88
77749;BME280;66938;52.084;5.228;2023-03-01T06:29:53;103167.0;;;-2.45;81.91
77749;BME280;66938;52.084;5.228;2023-03-01T06:31:29;103167.0;;;-2.52;81.39
77749;BME280;66938;52.084;5.228;2023-03-01T06:33:05;103163.00000000001;;;-2.48;81.25
77749;BME280;66938;52.084;5.228;2023-03-01T06:36:17;103165.00000000001;;;-2.52;81.06
77749;BME280;66938;52.084;5.228;2023-03-01T06:37:53;103166.00000000001;;;-2.47;81.08
77749;BME280;66938;52.084;5.228;2023-03-01T06:39:30;103167.0;;;-2.44;81.27
77749;BME280;66938;52.084;5.228;2023-03-01T06:42:48;103163.00000000001;;;-2.51;81.41
77749;BME280;66938;52.084;5.228;2023-03-01T06:44:25;103165.00000000001;;;-2.54;81.24
77749;BME280;66938;52.084;5.228;2023-03-01T06:46:04;103161.99999999999;;;-2.54;81.06
77749;BME280;66938;52.084;5.228;2023-03-01T06:49:16;103167.0;;;-2.56;81.23
77749;BME280;66938;52.084;5.228;2023-03-01T06:50:52;103172.0;;;-2.54;81.48
77749;BME280;66938;52.084;5.228;2023-03-01T06:52:30;103172.0;;;-2.57;81.22
77749;BME280;66938;52.084;5.228;2023-03-01T06:54:07;103173.0;;;-2.54;81.17
77749;BME280;66938;52.084;5.228;2023-03-01T06:57:19;103166.00000000001;;;-2.53;81.02
77749;BME280;66938;52.084;5.228;2023-03-01T06:58:55;103166.00000000001;;;-2.51;80.87
77749;BME280;66938;52.084;5.228;2023-03-01T07:00:32;103161.99999999999;;;-2.55;81.25
77749;BME280;66938;52.084;5.228;2023-03-01T07:03:47;103159.99999999999;;;-2.51;81.16
77749;BME280;66938;52.084;5.228;2023-03-01T07:05:23;103163.00000000001;;;-2.44;81.09
77749;BME280;66938;52.084;5.228;2023-03-01T07:06:59;103158.0;;;-2.38;81.22
77749;BME280;66938;52.084;5.228;2023-03-01T07:10:12;103161.99999999999;;;-2.42;81.72
77749;BME280;66938;52.084;5.228;2023-03-01T07:11:49;103163.00000000001;;;-2.36;81.58
77749;BME280;66938;52.084;5.228;2023-03-01T07:13:26;103159.99999999999;;;-2.31;81.45
77749;BME280;66938;52.084;5.228;2023-03-01T07:15:03;103163.00000000001;;;-2.3;81.52
77749;BME280;66938;52.084;5.228;2023-03-01T07:18:16;103163.00000000001;;;-2.3;81.89
77749;BME280;66938;52.084;5.228;2023-03-01T07:19:53;103167.0;;;-2.24;82.05
77749;BME280;66938;52.084;5.228;2023-03-01T07:21:29;103167.0;;;-2.15;81.93
77749;BME280;66938;52.084;5.228;2023-03-01T07:24:43;103165.00000000001;;;-2.06;81.83
77749;BME280;66938;52.084;5.228;2023-03-01T07:26:19;103173.0;;;-2.0;81.66
77749;BME280;66938;52.084;5.228;2023-03-01T07:27:55;103177.0;;;-1.94;81.45
77749;BME280;66938;52.084;5.228;2023-03-01T07:29:31;103178.0;;;-1.85;81.28
77749;BME280;66938;52.084;5.228;2023-03-01T07:32:44;103181.0;;;-1.81;81.39
77749;BME280;66938;52.084;5.228;2023-03-01T07:34:20;103181.0;;;-1.75;81.27
77749;BME280;66938;52.084;5.228;2023-03-01T07:35:57;103176.0;;;-1.7;81.19
77749;BME280;66938;52.084;5.228;2023-03-01T07:39:10;103173.0;;;-1.64;80.99
77749;BME280;66938;52.084;5.228;2023-03-01T07:40:46;103177.0;;;-1.64;81.14
77749;BME280;66938;52.084;5.228;2023-03-01T07:42:23;103179.0;;;-1.59;81.08
77749;BME280;66938;52.084;5.228;2023-03-01T07:45:35;103180.0;;;-1.54;80.95
77749;BME280;66938;52.084;5.228;2023-03-01T07:47:11;103180.0;;;-1.48;81.02
77749;BME280;66938;52.084;5.228;2023-03-01T07:48:47;103188.00000000001;;;-1.37;81.11
77749;BME280;66938;52.084;5.228;2023-03-01T07:51:59;103189.00000000001;;;-1.29;81.02
77749;BME280;66938;52.084;5.228;2023-03-01T07:53:36;103186.99999999999;;;-1.18;80.99
77749;BME280;66938;52.084;5.228;2023-03-01T07:55:13;103191.00000000001;;;-1.05;80.94
77749;BME280;66938;52.084;5.228;2023-03-01T07:56:50;103188.00000000001;;;-0.94;81.02
77749;BME280;66938;52.084;5.228;2023-03-01T08:00:04;103183.0;;;-0.81;81.17
77749;BME280;66938;52.084;5.228;2023-03-01T08:01:41;103186.99999999999;;;-0.73;81.39
77749;BME280;66938;52.084;5.228;2023-03-01T08:03:17;103189.00000000001;;;-0.65;81.22
77749;BME280;66938;52.084;5.228;2023-03-01T08:06:29;103191.00000000001;;;-0.56;81.19
77749;BME280;66938;52.084;5.228;2023-03-01T08:08:05;103191.00000000001;;;-0.5;80.77
77749;BME280;66938;52.084;5.228;2023-03-01T08:09:42;103186.99999999999;;;-0.42;80.72
77749;BME280;66938;52.084;5.228;2023-03-01T08:12:54;103186.99999999999;;;-0.33;80.47
77749;BME280;66938;52.084;5.228;2023-03-01T08:14:30;103188.00000000001;;;-0.21;80.23
77749;BME280;66938;52.084;5.228;2023-03-01T08:16:08;103179.0;;;-0.13;79.91
77749;BME280;66938;52.084;5.228;2023-03-01T08:17:48;103170.0;;;-0.03;79.53
77749;BME280;66938;52.084;5.228;2023-03-01T08:21:03;103173.0;;;0.08;79.44
77749;BME280;66938;52.084;5.228;2023-03-01T08:22:40;103175.0;;;0.17;79.19
77749;BME280;66938;52.084;5.228;2023-03-01T08:24:16;103167.0;;;0.27;78.78
77749;BME280;66938;52.084;5.228;2023-03-01T08:27:28;103168.0;;;0.38;78.66
77749;BME280;66938;52.084;5.228;2023-03-01T08:29:05;103171.0;;;0.46;78.49
77749;BME280;66938;52.084;5.228;2023-03-01T08:30:41;103171.0;;;0.62;78.19
77749;BME280;66938;52.084;5.228;2023-03-01T08:32:17;103165.00000000001;;;0.73;78.2
77749;BME280;66938;52.084;5.228;2023-03-01T08:35:33;103167.0;;;0.85;77.41
77749;BME280;66938;52.084;5.228;2023-03-01T08:37:09;103170.0;;;1.0;76.38
77749;BME280;66938;52.084;5.228;2023-03-01T08:38:46;103168.0;;;1.15;74.86
77749;BME280;66938;52.084;5.228;2023-03-01T08:41:58;103167.0;;;1.28;74.05
77749;BME280;66938;52.084;5.228;2023-03-01T08:43:34;103163.00000000001;;;1.43;73.16
77749;BME280;66938;52.084;5.228;2023-03-01T08:45:11;103161.99999999999;;;1.57;72.7
77749;BME280;66938;52.084;5.228;2023-03-01T08:48:23;103153.0;;;1.71;71.72
77749;BME280;66938;52.084;5.228;2023-03-01T08:50:01;103156.0;;;1.85;71.64
77749;BME280;66938;52.084;5.228;2023-03-01T08:51:38;103151.0;;;1.99;70.08
77749;BME280;66938;52.084;5.228;2023-03-01T08:53:15;103150.0;;;2.12;70.22
77749;BME280;66938;52.084;5.228;2023-03-01T08:56:27;103155.0;;;2.25;68.72
77749;BME280;66938;52.084;5.228;2023-03-01T08:58:03;103149.0;;;2.36;68.66
77749;BME280;66938;52.084;5.228;2023-03-01T08:59:39;103144.0;;;2.52;68.55
77749;BME280;66938;52.084;5.228;2023-03-01T09:02:55;103133.99999999999;;;2.61;68.27
77749;BME280;66938;52.084;5.228;2023-03-01T09:04:31;103133.0;;;2.74;68.03
77749;BME280;66938;52.084;5.228;2023-03-01T09:06:08;103134.99999999999;;;2.84;67.44
77749;BME280;66938;52.084;5.228;2023-03-01T09:09:20;103134.99999999999;;;2.96;66.5
77749;BME280;66938;52.084;5.228;2023-03-01T09:10:56;103131.0;;;3.11;65.3
77749;BME280;66938;52.084;5.228;2023-03-01T09:12:33;103124.0;;;3.24;64.02
77749;BME280;66938;52.084;5.228;2023-03-01T09:14:09;103120.0;;;3.35;62.41
77749;BME280;66938;52.084;5.228;2023-03-01T09:17:21;103117.0;;;3.49;63.18
77749;BME280;66938;52.084;5.228;2023-03-01T09:18:57;103109.99999999999;;;3.63;63.04
77749;BME280;66938;52.084;5.228;2023-03-01T09:20:34;103109.99999999999;;;3.77;60.88
77749;BME280;66938;52.084;5.228;2023-03-01T09:23:47;103113.00000000001;;;3.91;60.75
77749;BME280;66938;52.084;5.228;2023-03-01T09:25:24;103108.99999999999;;;4.05;59.58
77749;BME280;66938;52.084;5.228;2023-03-01T09:27:00;103107.0;;;4.2;59.6
77749;BME280;66938;52.084;5.228;2023-03-01T09:30:14;103104.0;;;4.33;59.12
77749;BME280;66938;52.084;5.228;2023-03-01T09:31:50;103102.0;;;4.47;60.23
77749;BME280;66938;52.084;5.228;2023-03-01T09:33:26;103096.0;;;4.57;56.81
77749;BME280;66938;52.084;5.228;2023-03-01T09:35:04;103088.00000000001;;;4.66;56.0
77749;BME280;66938;52.084;5.228;2023-03-01T09:38:16;103082.0;;;4.74;55.54
77749;BME280;66938;52.084;5.228;2023-03-01T09:39:52;103083.99999999999;;;4.86;54.73
77749;BME280;66938;52.084;5.228;2023-03-01T09:41:38;103083.0;;;4.96;55.22
77749;BME280;66938;52.084;5.228;2023-03-01T09:43:41;103080.0;;;5.05;54.79
77749;BME280;66938;52.084;5.228;2023-03-01T09:47:12;103083.99999999999;;;5.14;54.16
77749;BME280;66938;52.084;5.228;2023-03-01T09:48:56;103083.0;;;5.17;52.66
77749;BME280;66938;52.084;5.228;2023-03-01T09:50:39;103083.0;;;5.3;52.73
77749;BME280;66938;52.084;5.228;2023-03-01T09:52:23;103081.0;;;5.32;51.72
77749;BME280;66938;52.084;5.228;2023-03-01T09:54:06;103081.0;;;5.46;51.51
77749;BME280;66938;52.084;5.228;2023-03-01T09:57:29;103076.0;;;5.53;52.06
77749;BME280;66938;52.084;5.228;2023-03-01T09:59:17;103079.0;;;5.64;52.62
77749;BME280;66938;52.084;5.228;2023-03-01T10:01:02;103088.00000000001;;;5.69;50.53
77749;BME280;66938;52.084;5.228;2023-03-01T10:02:49;103090.00000000001;;;5.8;51.4
77749;BME280;66938;52.084;5.228;2023-03-01T10:04:35;103091.00000000001;;;5.85;50.62
77749;BME280;66938;52.084;5.228;2023-03-01T10:08:21;103092.0;;;5.89;50.06
77749;BME280;66938;52.084;5.228;2023-03-01T10:10:05;103091.00000000001;;;5.99;51.82
77749;BME280;66938;52.084;5.228;2023-03-01T10:11:44;103091.00000000001;;;6.04;48.49
77749;BME280;66938;52.084;5.228;2023-03-01T10:13:24;103083.99999999999;;;6.03;49.23
77749;BME280;66938;52.084;5.228;2023-03-01T10:15:09;103091.00000000001;;;6.06;47.94
77749;BME280;66938;52.084;5.228;2023-03-01T10:18:30;103089.00000000001;;;6.18;48.53
77749;BME280;66938;52.084;5.228;2023-03-01T10:20:20;103080.0;;;6.13;47.11
77749;BME280;66938;52.084;5.228;2023-03-01T10:22:03;103081.0;;;6.3;49.21
77749;BME280;66938;52.084;5.228;2023-03-01T10:23:46;103075.0;;;6.42;48.99
77749;BME280;66938;52.084;5.228;2023-03-01T10:25:40;103072.0;;;6.41;47.76
77749;BME280;66938;52.084;5.228;2023-03-01T10:27:23;103066.00000000001;;;6.45;48.04
77749;BME280;66938;52.084;5.228;2023-03-01T10:30:40;103061.99999999999;;;6.44;47.69
77749;BME280;66938;52.084;5.228;2023-03-01T10:32:18;103058.0;;;6.54;48.32
77749;BME280;66938;52.084;5.228;2023-03-01T10:33:55;103061.99999999999;;;6.52;47.75
77749;BME280;66938;52.084;5.228;2023-03-01T10:37:12;103056.0;;;6.61;47.75
77749;BME280;66938;52.084;5.228;2023-03-01T10:38:50;103058.99999999999;;;6.69;47.91
77749;BME280;66938;52.084;5.228;2023-03-01T10:40:28;103057.0;;;6.75;48.31